New Richmond, WI (54017)

8:16 AM CST on February 10, 2016 (GMT -0600)
Country View Ridge | | Change Station
CLOSE
Current Station
Personal Weather Station
Location: New Richmond, WI
Elevation: 971 ft
Nearby Weather Stations

Elev 971 ft 45.10 °N, 92.60 °W | Updated 20 seconds ago

Clear
Clear
-1.7 °F
Feels Like -12 °F
N
4.5
Wind Variable Wind from NW
Gusts 4.9 mph

Today
High -- | Low -- °F
--% Chance of Precip.
Yesterday
High -- | Low -- °F
Precip. -- in
Pressure 30.10 in
Visibility 10.0 miles
Clouds Clear
Windchill -12 °F
Dew Point -16 °F
Humidity 50%
Rainfall 0.00 in
Snow Depth Not available.
7:19 AM 5:30 PM
Waxing Crescent, 5% visible
METAR KRNH 101355Z AUTO 34004KT 10SM CLR M19/M22 A3010 RMK AO2 T11921220
Pressure 30.10 in
Visibility 10.0 miles
Clouds Clear
Windchill -12 °F
Dew Point -16 °F
Humidity 50%
Rainfall 0.00 in
Snow Depth Not available.
7:19 AM 5:30 PM
Waxing Crescent, 5% visible
METAR KRNH 101355Z AUTO 34004KT 10SM CLR M19/M22 A3010 RMK AO2 T11921220

10-Day Weather Forecast

Almanac

Astronomy

Feb. 10, 2016 Rise Set
Actual Time
Civil Twilight
Nautical Twilight
Astronomical Twilight
Moon
Length of Visible Light
Length of Day
Tomorrow will be .
, % of the Moon is Illuminated

Today's Extremes

State Highs State Lows

Community

WunderPhotos

Upload Photos

1,891,850 photos uploaded!

WunderBlog® & News

Nearby

Air Quality

  Air Quality AQ Index Pollutant
Not available.

Snow Depth

Station Depth Elevation

Earthquake Activity

City Distance Mag. Time & Date
Minimum magnitude displayed is 2.5.

Coastal Water Temperatures

Place Temperature

Stations

Nearby Weather Stations

Station Location Temp. Windchill Dew Point Humidity Wind Precip. Elev Updated Type
                   

Watches & Warnings

There are currently no watches in effect.